createdAt,value
2022-09-13T00:00:51.050Z,15.00
2022-09-13T00:05:42.877Z,15.10
2022-09-13T00:10:37.560Z,15.10
2022-09-13T00:15:30.108Z,14.90
2022-09-13T00:20:22.010Z,14.70
2022-09-13T00:25:13.745Z,14.60
2022-09-13T00:30:08.399Z,14.70
2022-09-13T00:35:00.174Z,15.00
2022-09-13T00:39:51.868Z,14.90
2022-09-13T00:45:12.168Z,14.80
2022-09-13T00:50:24.541Z,14.80
2022-09-13T00:55:35.112Z,14.70
2022-09-13T01:00:26.948Z,14.70
2022-09-13T01:05:24.132Z,14.60
2022-09-13T01:10:24.088Z,14.70
2022-09-13T01:15:15.970Z,14.80
2022-09-13T01:20:11.387Z,14.70
2022-09-13T01:25:38.108Z,14.80
2022-09-13T01:30:40.453Z,14.80
2022-09-13T01:35:49.557Z,15.10
2022-09-13T01:41:18.028Z,15.10
2022-09-13T01:46:16.976Z,15.10
2022-09-13T01:51:23.254Z,14.80
2022-09-13T01:56:33.017Z,14.70
2022-09-13T02:01:39.128Z,14.30
2022-09-13T02:06:40.371Z,14.30
2022-09-13T02:11:36.818Z,14.30
2022-09-13T02:16:45.059Z,14.40
2022-09-13T02:21:45.736Z,14.60
2022-09-13T02:26:41.713Z,14.40
2022-09-13T02:31:52.717Z,14.30
2022-09-13T02:36:48.688Z,14.20
2022-09-13T02:42:04.413Z,14.10
2022-09-13T02:47:12.095Z,13.90
2022-09-13T02:52:14.040Z,13.80
2022-09-13T02:57:18.543Z,14.00
2022-09-13T03:02:16.492Z,14.00
2022-09-13T03:07:15.735Z,14.00
2022-09-13T03:12:10.488Z,13.90
2022-09-13T03:17:35.949Z,13.80
2022-09-13T03:23:17.834Z,13.80
2022-09-13T03:28:43.010Z,13.80
2022-09-13T03:34:13.845Z,13.90
2022-09-13T03:39:51.738Z,13.80
2022-09-13T03:44:48.504Z,13.70
2022-09-13T03:49:41.240Z,13.60
2022-09-13T03:54:37.456Z,13.60
2022-09-13T03:59:29.138Z,13.60
2022-09-13T04:04:21.228Z,13.50
2022-09-13T04:09:14.116Z,13.60
2022-09-13T04:14:06.350Z,13.50
2022-09-13T04:18:59.258Z,13.60
2022-09-13T04:23:51.254Z,13.50
2022-09-13T04:38:57.206Z,13.70
2022-09-13T04:43:51.214Z,14.10
2022-09-13T04:53:59.972Z,13.80
2022-09-13T04:58:53.168Z,13.90
2022-09-13T05:03:45.767Z,13.80
2022-09-13T05:08:38.355Z,13.70
2022-09-13T05:13:31.409Z,13.70
2022-09-13T05:18:27.500Z,14.10
2022-09-13T05:28:27.572Z,15.00
2022-09-13T05:44:12.598Z,16.30
2022-09-13T05:49:08.052Z,17.30
2022-09-13T05:54:00.021Z,18.30
2022-09-13T05:58:53.595Z,19.10
2022-09-13T06:03:49.798Z,19.30
2022-09-13T06:08:41.739Z,19.80
2022-09-13T06:13:34.938Z,20.40
2022-09-13T06:18:27.689Z,20.20
2022-09-13T06:23:19.542Z,20.10
2022-09-13T06:28:11.298Z,20.60
2022-09-13T06:33:03.640Z,20.70
2022-09-13T06:38:00.158Z,19.90
2022-09-13T06:53:03.983Z,19.40
2022-09-13T06:57:56.124Z,19.30
2022-09-13T07:03:01.001Z,19.50
2022-09-13T07:28:49.609Z,19.20
2022-09-13T07:33:43.876Z,19.20
2022-09-13T07:38:37.545Z,19.10
2022-09-13T07:43:29.713Z,19.20
2022-09-13T07:48:25.282Z,19.40
2022-09-13T07:53:19.165Z,19.40
2022-09-13T07:58:12.477Z,19.40
2022-09-13T08:03:04.342Z,19.80
2022-09-13T08:07:56.230Z,20.10
2022-09-13T08:12:49.428Z,19.80
2022-09-13T08:17:41.143Z,20.30
2022-09-13T08:22:32.893Z,20.80
2022-09-13T08:27:25.897Z,20.80
2022-09-13T08:32:18.662Z,20.80
2022-09-13T08:37:11.682Z,21.20
2022-09-13T08:47:59.616Z,21.10
2022-09-13T08:53:09.379Z,21.50
2022-09-13T08:58:23.633Z,21.30
2022-09-13T09:09:14.903Z,21.50
2022-09-13T09:56:56.693Z,23.10
2022-09-13T10:23:33.835Z,23.20
2022-09-13T10:33:41.193Z,23.30
2022-09-13T10:38:48.605Z,23.40
2022-09-13T10:43:40.919Z,23.10
2022-09-13T10:48:48.202Z,23.10
2022-09-13T10:53:42.940Z,23.20
2022-09-13T10:58:35.038Z,23.60
2022-09-13T11:03:33.225Z,23.90
2022-09-13T11:08:54.800Z,24.20
2022-09-13T11:13:57.897Z,24.30
2022-09-13T11:19:12.074Z,24.30
2022-09-13T11:35:53.882Z,24.80
2022-09-13T11:41:52.884Z,25.10
2022-09-13T11:58:00.933Z,25.10
2022-09-13T12:19:16.970Z,25.30
2022-09-13T12:41:16.784Z,25.90
2022-09-13T12:46:11.433Z,25.90
2022-09-13T12:51:34.988Z,26.00
2022-09-13T12:57:04.645Z,25.60
2022-09-13T13:01:58.356Z,25.40
2022-09-13T13:07:16.825Z,25.20
2022-09-13T13:12:27.982Z,25.30
2022-09-13T13:17:45.442Z,25.60
2022-09-13T13:22:44.071Z,25.90
2022-09-13T13:27:47.651Z,25.90
2022-09-13T13:33:15.156Z,26.00
2022-09-13T13:38:42.446Z,26.30
2022-09-13T13:43:35.156Z,26.20
2022-09-13T13:48:42.597Z,25.90
2022-09-13T13:53:36.840Z,25.90
2022-09-13T13:59:07.506Z,25.60
2022-09-13T14:04:56.145Z,25.20
2022-09-13T14:10:14.334Z,25.30
2022-09-13T14:15:47.878Z,25.50
2022-09-13T14:21:04.333Z,25.90
2022-09-13T14:26:01.353Z,26.40
2022-09-13T14:30:59.603Z,26.80
2022-09-13T14:36:21.673Z,27.00
2022-09-13T14:41:21.381Z,27.10
2022-09-13T14:46:31.828Z,27.40
2022-09-13T18:03:21.915Z,21.90
2022-09-13T18:13:24.322Z,21.70
2022-09-13T19:04:43.537Z,21.30
2022-09-13T19:25:08.321Z,21.30
2022-09-13T19:30:01.233Z,21.20
2022-09-13T19:50:24.693Z,21.00
2022-09-13T20:36:51.821Z,20.60
2022-09-13T20:41:46.216Z,20.60
2022-09-13T21:02:00.117Z,20.40
2022-09-13T21:07:14.633Z,20.40
2022-09-13T21:22:28.857Z,20.40
2022-09-13T21:37:34.102Z,20.40
2022-09-13T21:52:39.606Z,20.50
2022-09-13T22:02:37.335Z,20.50
2022-09-13T22:07:29.526Z,20.40
2022-09-13T22:17:41.754Z,20.40
2022-09-13T22:22:35.095Z,20.50
2022-09-13T22:32:33.767Z,20.50
2022-09-13T22:37:27.869Z,20.40
2022-09-13T22:42:20.496Z,20.40
2022-09-13T22:47:14.492Z,20.50
2022-09-13T22:52:07.202Z,20.40
2022-09-13T22:56:59.522Z,20.40
2022-09-13T23:01:51.387Z,20.30
2022-09-13T23:06:51.908Z,20.30
2022-09-13T23:11:45.070Z,20.30
2022-09-13T23:16:44.087Z,20.20
2022-09-13T23:26:46.000Z,20.20
2022-09-13T23:41:52.999Z,20.20
2022-09-13T23:46:45.120Z,20.20
2022-09-13T23:51:38.321Z,20.20
2022-09-13T23:56:32.091Z,20.20
